sensor_id;sensor_type;location;lat;lon;timestamp;P1;durP1;ratioP1;P2;durP2;ratioP2
10882;SDS011;5494;51.796;10.952;2023-07-31T00:02:17;5.87;;;1.70;;
10882;SDS011;5494;51.796;10.952;2023-07-31T00:04:45;5.03;;;1.87;;
10882;SDS011;5494;51.796;10.952;2023-07-31T00:07:13;6.03;;;2.13;;
10882;SDS011;5494;51.796;10.952;2023-07-31T00:09:41;3.67;;;1.40;;
10882;SDS011;5494;51.796;10.952;2023-07-31T00:12:09;4.53;;;2.77;;
10882;SDS011;5494;51.796;10.952;2023-07-31T00:14:37;3.43;;;1.77;;
10882;SDS011;5494;51.796;10.952;2023-07-31T00:17:07;6.07;;;1.90;;
10882;SDS011;5494;51.796;10.952;2023-07-31T00:19:35;4.83;;;1.60;;
10882;SDS011;5494;51.796;10.952;2023-07-31T00:22:03;5.63;;;1.80;;
10882;SDS011;5494;51.796;10.952;2023-07-31T00:24:32;4.93;;;1.77;;
10882;SDS011;5494;51.796;10.952;2023-07-31T00:27:01;5.40;;;2.00;;
10882;SDS011;5494;51.796;10.952;2023-07-31T00:29:29;5.87;;;1.90;;
10882;SDS011;5494;51.796;10.952;2023-07-31T00:31:57;3.43;;;1.93;;
10882;SDS011;5494;51.796;10.952;2023-07-31T00:34:26;4.07;;;1.67;;
10882;SDS011;5494;51.796;10.952;2023-07-31T00:36:55;3.97;;;2.10;;
10882;SDS011;5494;51.796;10.952;2023-07-31T00:39:23;3.90;;;2.00;;
10882;SDS011;5494;51.796;10.952;2023-07-31T00:41:51;3.27;;;1.60;;
10882;SDS011;5494;51.796;10.952;2023-07-31T00:44:19;2.10;;;1.40;;
10882;SDS011;5494;51.796;10.952;2023-07-31T00:46:47;4.53;;;1.47;;
10882;SDS011;5494;51.796;10.952;2023-07-31T00:49:16;4.20;;;1.90;;
10882;SDS011;5494;51.796;10.952;2023-07-31T00:51:45;2.77;;;1.50;;
10882;SDS011;5494;51.796;10.952;2023-07-31T00:54:13;3.80;;;1.80;;
10882;SDS011;5494;51.796;10.952;2023-07-31T00:56:42;2.90;;;1.57;;
10882;SDS011;5494;51.796;10.952;2023-07-31T00:59:14;6.80;;;1.90;;
10882;SDS011;5494;51.796;10.952;2023-07-31T01:01:44;3.47;;;1.87;;
10882;SDS011;5494;51.796;10.952;2023-07-31T01:04:13;4.23;;;1.70;;
10882;SDS011;5494;51.796;10.952;2023-07-31T01:06:48;2.93;;;1.60;;
10882;SDS011;5494;51.796;10.952;2023-07-31T01:09:30;2.77;;;1.80;;
10882;SDS011;5494;51.796;10.952;2023-07-31T01:12:28;1.67;;;1.40;;
10882;SDS011;5494;51.796;10.952;2023-07-31T01:15:03;2.60;;;1.60;;
10882;SDS011;5494;51.796;10.952;2023-07-31T01:17:33;1.93;;;1.10;;
10882;SDS011;5494;51.796;10.952;2023-07-31T01:20:02;3.13;;;1.30;;
10882;SDS011;5494;51.796;10.952;2023-07-31T01:25:50;3.43;;;1.43;;
10882;SDS011;5494;51.796;10.952;2023-07-31T01:28:32;1.27;;;1.07;;
10882;SDS011;5494;51.796;10.952;2023-07-31T01:31:12;1.33;;;1.00;;
10882;SDS011;5494;51.796;10.952;2023-07-31T01:33:47;2.03;;;1.17;;
10882;SDS011;5494;51.796;10.952;2023-07-31T01:36:17;1.30;;;1.17;;
10882;SDS011;5494;51.796;10.952;2023-07-31T01:38:45;2.23;;;1.30;;
10882;SDS011;5494;51.796;10.952;2023-07-31T01:41:17;1.20;;;1.10;;
10882;SDS011;5494;51.796;10.952;2023-07-31T01:43:45;2.40;;;0.97;;
10882;SDS011;5494;51.796;10.952;2023-07-31T01:46:14;1.00;;;0.90;;
10882;SDS011;5494;51.796;10.952;2023-07-31T01:48:42;1.70;;;1.00;;
10882;SDS011;5494;51.796;10.952;2023-07-31T01:51:10;1.50;;;1.00;;
10882;SDS011;5494;51.796;10.952;2023-07-31T01:53:38;1.10;;;0.80;;
10882;SDS011;5494;51.796;10.952;2023-07-31T01:56:07;2.17;;;1.03;;
10882;SDS011;5494;51.796;10.952;2023-07-31T01:58:37;1.50;;;0.93;;
10882;SDS011;5494;51.796;10.952;2023-07-31T02:01:05;1.00;;;0.90;;
10882;SDS011;5494;51.796;10.952;2023-07-31T02:03:33;1.93;;;1.10;;
10882;SDS011;5494;51.796;10.952;2023-07-31T02:06:02;2.37;;;1.20;;
10882;SDS011;5494;51.796;10.952;2023-07-31T02:08:30;0.80;;;0.80;;
10882;SDS011;5494;51.796;10.952;2023-07-31T02:10:58;1.37;;;0.83;;
10882;SDS011;5494;51.796;10.952;2023-07-31T02:13:26;1.07;;;0.90;;
10882;SDS011;5494;51.796;10.952;2023-07-31T02:15:55;1.47;;;1.20;;
10882;SDS011;5494;51.796;10.952;2023-07-31T02:18:24;1.47;;;1.00;;
10882;SDS011;5494;51.796;10.952;2023-07-31T02:20:52;1.00;;;1.00;;
10882;SDS011;5494;51.796;10.952;2023-07-31T02:23:21;1.07;;;0.80;;
10882;SDS011;5494;51.796;10.952;2023-07-31T02:25:49;0.93;;;0.80;;
10882;SDS011;5494;51.796;10.952;2023-07-31T02:28:17;1.47;;;0.93;;
10882;SDS011;5494;51.796;10.952;2023-07-31T02:30:45;1.00;;;0.80;;
10882;SDS011;5494;51.796;10.952;2023-07-31T02:33:15;1.40;;;0.80;;
10882;SDS011;5494;51.796;10.952;2023-07-31T02:35:43;1.27;;;0.80;;
10882;SDS011;5494;51.796;10.952;2023-07-31T02:38:11;0.80;;;0.53;;
10882;SDS011;5494;51.796;10.952;2023-07-31T02:40:40;0.70;;;0.70;;
10882;SDS011;5494;51.796;10.952;2023-07-31T02:43:08;1.23;;;0.77;;
10882;SDS011;5494;51.796;10.952;2023-07-31T02:45:36;1.73;;;0.73;;
10882;SDS011;5494;51.796;10.952;2023-07-31T02:48:05;1.13;;;1.03;;
10882;SDS011;5494;51.796;10.952;2023-07-31T02:50:37;1.27;;;0.97;;
10882;SDS011;5494;51.796;10.952;2023-07-31T02:53:05;1.23;;;1.00;;
10882;SDS011;5494;51.796;10.952;2023-07-31T02:55:33;2.77;;;1.20;;
10882;SDS011;5494;51.796;10.952;2023-07-31T02:58:01;2.73;;;1.23;;
10882;SDS011;5494;51.796;10.952;2023-07-31T03:00:29;3.17;;;1.30;;
10882;SDS011;5494;51.796;10.952;2023-07-31T03:02:57;1.53;;;1.40;;
10882;SDS011;5494;51.796;10.952;2023-07-31T03:05:26;1.37;;;1.20;;
10882;SDS011;5494;51.796;10.952;2023-07-31T03:07:56;3.53;;;1.67;;
10882;SDS011;5494;51.796;10.952;2023-07-31T03:10:24;1.80;;;1.20;;
10882;SDS011;5494;51.796;10.952;2023-07-31T03:12:52;2.83;;;1.60;;
10882;SDS011;5494;51.796;10.952;2023-07-31T03:15:20;2.37;;;1.50;;
10882;SDS011;5494;51.796;10.952;2023-07-31T03:17:48;2.93;;;1.50;;
10882;SDS011;5494;51.796;10.952;2023-07-31T03:20:17;1.67;;;1.50;;
10882;SDS011;5494;51.796;10.952;2023-07-31T03:22:45;3.20;;;1.80;;
10882;SDS011;5494;51.796;10.952;2023-07-31T03:25:15;2.63;;;1.70;;
10882;SDS011;5494;51.796;10.952;2023-07-31T03:27:43;2.97;;;1.80;;
10882;SDS011;5494;51.796;10.952;2023-07-31T03:30:11;2.67;;;1.90;;
10882;SDS011;5494;51.796;10.952;2023-07-31T03:32:39;3.03;;;1.90;;
10882;SDS011;5494;51.796;10.952;2023-07-31T03:35:08;5.67;;;2.40;;
10882;SDS011;5494;51.796;10.952;2023-07-31T03:37:36;3.40;;;2.27;;
10882;SDS011;5494;51.796;10.952;2023-07-31T03:40:06;3.83;;;2.50;;
10882;SDS011;5494;51.796;10.952;2023-07-31T03:42:37;2.63;;;1.90;;
10882;SDS011;5494;51.796;10.952;2023-07-31T03:45:05;4.13;;;2.57;;
10882;SDS011;5494;51.796;10.952;2023-07-31T03:47:35;2.80;;;2.13;;
10882;SDS011;5494;51.796;10.952;2023-07-31T03:50:04;6.00;;;2.87;;
10882;SDS011;5494;51.796;10.952;2023-07-31T03:52:33;5.00;;;2.33;;
10882;SDS011;5494;51.796;10.952;2023-07-31T03:55:01;4.20;;;2.50;;
10882;SDS011;5494;51.796;10.952;2023-07-31T03:57:30;3.00;;;2.10;;
10882;SDS011;5494;51.796;10.952;2023-07-31T04:00:00;2.87;;;2.00;;
10882;SDS011;5494;51.796;10.952;2023-07-31T04:02:37;2.83;;;2.30;;
10882;SDS011;5494;51.796;10.952;2023-07-31T04:05:05;4.00;;;2.10;;
10882;SDS011;5494;51.796;10.952;2023-07-31T04:07:34;4.23;;;2.00;;
10882;SDS011;5494;51.796;10.952;2023-07-31T04:10:03;3.60;;;2.03;;
10882;SDS011;5494;51.796;10.952;2023-07-31T04:12:31;2.77;;;2.10;;
10882;SDS011;5494;51.796;10.952;2023-07-31T04:15:01;2.47;;;2.00;;
10882;SDS011;5494;51.796;10.952;2023-07-31T04:17:29;2.10;;;1.77;;
10882;SDS011;5494;51.796;10.952;2023-07-31T04:19:58;2.20;;;1.90;;
10882;SDS011;5494;51.796;10.952;2023-07-31T04:22:26;3.37;;;1.60;;
10882;SDS011;5494;51.796;10.952;2023-07-31T04:24:54;4.87;;;1.70;;
10882;SDS011;5494;51.796;10.952;2023-07-31T04:27:22;2.97;;;1.67;;
10882;SDS011;5494;51.796;10.952;2023-07-31T04:29:50;1.63;;;1.23;;
10882;SDS011;5494;51.796;10.952;2023-07-31T04:32:20;2.90;;;1.60;;
10882;SDS011;5494;51.796;10.952;2023-07-31T04:34:48;2.17;;;1.50;;
10882;SDS011;5494;51.796;10.952;2023-07-31T04:37:16;2.13;;;1.37;;
10882;SDS011;5494;51.796;10.952;2023-07-31T04:39:44;2.43;;;1.50;;
10882;SDS011;5494;51.796;10.952;2023-07-31T04:42:13;2.07;;;1.23;;
10882;SDS011;5494;51.796;10.952;2023-07-31T04:44:41;2.43;;;1.23;;
10882;SDS011;5494;51.796;10.952;2023-07-31T04:47:09;1.17;;;1.07;;
10882;SDS011;5494;51.796;10.952;2023-07-31T04:49:38;1.83;;;1.60;;
10882;SDS011;5494;51.796;10.952;2023-07-31T04:52:06;1.70;;;1.33;;
10882;SDS011;5494;51.796;10.952;2023-07-31T04:54:35;2.17;;;1.57;;
10882;SDS011;5494;51.796;10.952;2023-07-31T04:57:03;1.83;;;1.30;;
10882;SDS011;5494;51.796;10.952;2023-07-31T04:59:33;3.20;;;1.50;;
10882;SDS011;5494;51.796;10.952;2023-07-31T05:02:01;2.67;;;2.10;;
10882;SDS011;5494;51.796;10.952;2023-07-31T05:04:32;3.37;;;2.13;;
10882;SDS011;5494;51.796;10.952;2023-07-31T05:07:01;2.37;;;1.90;;
10882;SDS011;5494;51.796;10.952;2023-07-31T05:09:29;3.73;;;2.20;;
10882;SDS011;5494;51.796;10.952;2023-07-31T05:11:57;3.40;;;2.30;;
10882;SDS011;5494;51.796;10.952;2023-07-31T05:14:26;3.13;;;2.47;;
10882;SDS011;5494;51.796;10.952;2023-07-31T05:16:54;3.60;;;2.20;;
10882;SDS011;5494;51.796;10.952;2023-07-31T05:19:22;4.33;;;2.60;;
10882;SDS011;5494;51.796;10.952;2023-07-31T05:21:50;4.13;;;2.77;;
10882;SDS011;5494;51.796;10.952;2023-07-31T05:24:20;4.43;;;2.80;;
10882;SDS011;5494;51.796;10.952;2023-07-31T05:26:48;3.43;;;2.70;;
10882;SDS011;5494;51.796;10.952;2023-07-31T05:29:16;4.80;;;3.20;;
10882;SDS011;5494;51.796;10.952;2023-07-31T05:31:44;3.37;;;2.80;;
10882;SDS011;5494;51.796;10.952;2023-07-31T05:34:12;3.80;;;3.10;;
10882;SDS011;5494;51.796;10.952;2023-07-31T05:36:40;3.93;;;3.07;;
10882;SDS011;5494;51.796;10.952;2023-07-31T05:39:08;3.10;;;2.80;;
10882;SDS011;5494;51.796;10.952;2023-07-31T05:41:37;2.83;;;2.57;;
10882;SDS011;5494;51.796;10.952;2023-07-31T05:44:05;4.40;;;2.80;;
10882;SDS011;5494;51.796;10.952;2023-07-31T05:46:34;4.23;;;2.97;;
10882;SDS011;5494;51.796;10.952;2023-07-31T05:49:02;4.43;;;2.60;;
10882;SDS011;5494;51.796;10.952;2023-07-31T05:51:30;2.60;;;2.40;;
10882;SDS011;5494;51.796;10.952;2023-07-31T05:53:58;4.00;;;3.00;;
10882;SDS011;5494;51.796;10.952;2023-07-31T05:56:26;4.40;;;2.40;;
10882;SDS011;5494;51.796;10.952;2023-07-31T05:58:55;4.57;;;2.40;;
10882;SDS011;5494;51.796;10.952;2023-07-31T06:01:23;4.23;;;2.50;;
10882;SDS011;5494;51.796;10.952;2023-07-31T06:03:52;4.73;;;2.77;;
10882;SDS011;5494;51.796;10.952;2023-07-31T06:06:20;4.07;;;2.33;;
10882;SDS011;5494;51.796;10.952;2023-07-31T06:08:48;4.67;;;2.60;;
10882;SDS011;5494;51.796;10.952;2023-07-31T06:11:17;4.97;;;3.10;;
10882;SDS011;5494;51.796;10.952;2023-07-31T06:13:46;3.87;;;2.53;;
10882;SDS011;5494;51.796;10.952;2023-07-31T06:16:15;2.97;;;2.40;;
10882;SDS011;5494;51.796;10.952;2023-07-31T06:18:44;5.87;;;2.80;;
10882;SDS011;5494;51.796;10.952;2023-07-31T06:21:12;4.67;;;2.50;;
10882;SDS011;5494;51.796;10.952;2023-07-31T06:23:40;3.70;;;2.33;;
10882;SDS011;5494;51.796;10.952;2023-07-31T06:26:09;2.77;;;2.40;;
10882;SDS011;5494;51.796;10.952;2023-07-31T06:28:37;3.80;;;2.47;;
10882;SDS011;5494;51.796;10.952;2023-07-31T06:31:05;2.90;;;2.27;;
10882;SDS011;5494;51.796;10.952;2023-07-31T06:33:35;4.57;;;2.40;;
10882;SDS011;5494;51.796;10.952;2023-07-31T06:36:03;2.67;;;2.10;;
10882;SDS011;5494;51.796;10.952;2023-07-31T06:38:32;4.50;;;2.83;;
10882;SDS011;5494;51.796;10.952;2023-07-31T06:41:00;3.13;;;2.23;;
10882;SDS011;5494;51.796;10.952;2023-07-31T06:43:28;2.43;;;1.97;;
10882;SDS011;5494;51.796;10.952;2023-07-31T06:45:56;4.23;;;2.70;;
10882;SDS011;5494;51.796;10.952;2023-07-31T06:48:24;4.30;;;2.70;;
10882;SDS011;5494;51.796;10.952;2023-07-31T06:50:53;5.80;;;2.70;;
10882;SDS011;5494;51.796;10.952;2023-07-31T06:53:21;6.70;;;3.00;;
10882;SDS011;5494;51.796;10.952;2023-07-31T06:55:49;4.50;;;2.70;;
10882;SDS011;5494;51.796;10.952;2023-07-31T06:58:18;3.67;;;3.07;;
10882;SDS011;5494;51.796;10.952;2023-07-31T07:00:46;4.73;;;2.73;;
10882;SDS011;5494;51.796;10.952;2023-07-31T07:03:16;3.27;;;2.40;;
10882;SDS011;5494;51.796;10.952;2023-07-31T07:05:46;5.67;;;2.63;;
10882;SDS011;5494;51.796;10.952;2023-07-31T07:08:16;3.60;;;2.60;;
10882;SDS011;5494;51.796;10.952;2023-07-31T07:10:46;4.43;;;2.60;;
10882;SDS011;5494;51.796;10.952;2023-07-31T07:13:15;5.77;;;2.60;;
10882;SDS011;5494;51.796;10.952;2023-07-31T07:15:47;4.20;;;2.67;;
10882;SDS011;5494;51.796;10.952;2023-07-31T07:18:15;5.60;;;2.53;;
10882;SDS011;5494;51.796;10.952;2023-07-31T07:20:46;5.70;;;2.93;;
10882;SDS011;5494;51.796;10.952;2023-07-31T07:23:16;4.47;;;2.40;;
10882;SDS011;5494;51.796;10.952;2023-07-31T07:25:44;5.90;;;2.60;;
10882;SDS011;5494;51.796;10.952;2023-07-31T07:28:14;4.67;;;2.70;;
10882;SDS011;5494;51.796;10.952;2023-07-31T07:30:42;4.30;;;2.30;;
10882;SDS011;5494;51.796;10.952;2023-07-31T07:33:11;4.43;;;2.90;;
10882;SDS011;5494;51.796;10.952;2023-07-31T07:35:39;4.70;;;2.70;;
10882;SDS011;5494;51.796;10.952;2023-07-31T07:38:08;4.77;;;2.63;;
10882;SDS011;5494;51.796;10.952;2023-07-31T07:40:39;4.83;;;2.50;;
10882;SDS011;5494;51.796;10.952;2023-07-31T07:43:07;4.93;;;3.03;;
10882;SDS011;5494;51.796;10.952;2023-07-31T07:45:36;5.10;;;2.73;;
10882;SDS011;5494;51.796;10.952;2023-07-31T07:48:04;3.20;;;2.30;;
10882;SDS011;5494;51.796;10.952;2023-07-31T07:50:32;4.50;;;2.97;;
10882;SDS011;5494;51.796;10.952;2023-07-31T07:53:01;6.23;;;3.03;;
10882;SDS011;5494;51.796;10.952;2023-07-31T07:55:30;4.17;;;2.70;;
10882;SDS011;5494;51.796;10.952;2023-07-31T07:57:59;5.03;;;2.60;;
10882;SDS011;5494;51.796;10.952;2023-07-31T08:00:27;5.90;;;2.77;;
10882;SDS011;5494;51.796;10.952;2023-07-31T08:02:56;5.33;;;2.80;;
10882;SDS011;5494;51.796;10.952;2023-07-31T08:05:24;6.27;;;2.93;;
10882;SDS011;5494;51.796;10.952;2023-07-31T08:07:53;4.47;;;2.50;;
10882;SDS011;5494;51.796;10.952;2023-07-31T08:10:21;5.13;;;2.53;;
10882;SDS011;5494;51.796;10.952;2023-07-31T08:12:49;3.50;;;2.67;;
10882;SDS011;5494;51.796;10.952;2023-07-31T08:15:18;5.20;;;2.73;;
10882;SDS011;5494;51.796;10.952;2023-07-31T08:17:46;4.90;;;2.63;;
10882;SDS011;5494;51.796;10.952;2023-07-31T08:20:14;3.57;;;2.57;;
10882;SDS011;5494;51.796;10.952;2023-07-31T08:22:42;4.80;;;2.90;;
10882;SDS011;5494;51.796;10.952;2023-07-31T08:25:11;3.93;;;2.40;;
10882;SDS011;5494;51.796;10.952;2023-07-31T08:27:42;4.33;;;3.10;;
10882;SDS011;5494;51.796;10.952;2023-07-31T08:30:11;5.20;;;2.73;;
10882;SDS011;5494;51.796;10.952;2023-07-31T08:32:41;5.73;;;2.37;;
10882;SDS011;5494;51.796;10.952;2023-07-31T08:35:09;3.47;;;2.47;;
10882;SDS011;5494;51.796;10.952;2023-07-31T08:37:37;4.40;;;2.50;;
10882;SDS011;5494;51.796;10.952;2023-07-31T08:40:06;3.47;;;2.30;;
10882;SDS011;5494;51.796;10.952;2023-07-31T08:42:42;3.83;;;2.50;;
10882;SDS011;5494;51.796;10.952;2023-07-31T08:45:13;5.03;;;2.50;;
10882;SDS011;5494;51.796;10.952;2023-07-31T08:47:45;3.47;;;2.43;;
10882;SDS011;5494;51.796;10.952;2023-07-31T08:50:16;4.23;;;2.20;;
10882;SDS011;5494;51.796;10.952;2023-07-31T08:52:47;4.30;;;2.50;;
10882;SDS011;5494;51.796;10.952;2023-07-31T08:55:18;4.27;;;2.20;;
10882;SDS011;5494;51.796;10.952;2023-07-31T08:57:51;4.10;;;2.47;;
10882;SDS011;5494;51.796;10.952;2023-07-31T09:00:20;3.93;;;2.40;;
10882;SDS011;5494;51.796;10.952;2023-07-31T09:02:54;4.37;;;2.37;;
10882;SDS011;5494;51.796;10.952;2023-07-31T09:05:29;2.30;;;1.97;;
10882;SDS011;5494;51.796;10.952;2023-07-31T09:07:58;4.17;;;2.37;;
10882;SDS011;5494;51.796;10.952;2023-07-31T09:10:31;2.73;;;1.50;;
10882;SDS011;5494;51.796;10.952;2023-07-31T09:12:59;2.03;;;1.60;;
10882;SDS011;5494;51.796;10.952;2023-07-31T09:15:28;3.10;;;1.47;;
10882;SDS011;5494;51.796;10.952;2023-07-31T09:18:05;2.37;;;1.67;;
10882;SDS011;5494;51.796;10.952;2023-07-31T09:20:35;1.93;;;1.47;;
10882;SDS011;5494;51.796;10.952;2023-07-31T09:23:07;2.43;;;1.57;;
10882;SDS011;5494;51.796;10.952;2023-07-31T09:25:37;2.80;;;1.40;;
10882;SDS011;5494;51.796;10.952;2023-07-31T09:28:07;1.40;;;1.30;;
10882;SDS011;5494;51.796;10.952;2023-07-31T09:30:45;2.27;;;1.50;;
10882;SDS011;5494;51.796;10.952;2023-07-31T09:33:17;3.20;;;1.73;;
10882;SDS011;5494;51.796;10.952;2023-07-31T09:35:46;3.43;;;1.70;;
10882;SDS011;5494;51.796;10.952;2023-07-31T09:38:15;3.07;;;2.00;;
10882;SDS011;5494;51.796;10.952;2023-07-31T09:40:44;1.90;;;1.70;;
10882;SDS011;5494;51.796;10.952;2023-07-31T09:43:16;2.93;;;1.90;;
10882;SDS011;5494;51.796;10.952;2023-07-31T09:45:47;4.07;;;2.00;;
10882;SDS011;5494;51.796;10.952;2023-07-31T09:48:23;3.03;;;2.07;;
10882;SDS011;5494;51.796;10.952;2023-07-31T09:50:53;4.27;;;2.50;;
10882;SDS011;5494;51.796;10.952;2023-07-31T09:53:28;4.70;;;2.30;;
10882;SDS011;5494;51.796;10.952;2023-07-31T09:55:58;4.03;;;2.40;;
10882;SDS011;5494;51.796;10.952;2023-07-31T09:58:26;2.60;;;2.10;;
10882;SDS011;5494;51.796;10.952;2023-07-31T10:00:57;3.97;;;2.70;;
10882;SDS011;5494;51.796;10.952;2023-07-31T10:03:27;3.77;;;2.27;;
10882;SDS011;5494;51.796;10.952;2023-07-31T10:05:59;3.77;;;2.40;;
10882;SDS011;5494;51.796;10.952;2023-07-31T10:08:30;3.50;;;2.20;;
10882;SDS011;5494;51.796;10.952;2023-07-31T10:11:02;3.53;;;2.47;;
10882;SDS011;5494;51.796;10.952;2023-07-31T10:13:34;2.47;;;2.13;;
10882;SDS011;5494;51.796;10.952;2023-07-31T10:16:03;4.20;;;2.70;;
10882;SDS011;5494;51.796;10.952;2023-07-31T10:18:33;5.17;;;3.00;;
10882;SDS011;5494;51.796;10.952;2023-07-31T10:21:03;3.67;;;2.27;;
10882;SDS011;5494;51.796;10.952;2023-07-31T10:23:32;3.30;;;2.40;;
10882;SDS011;5494;51.796;10.952;2023-07-31T10:26:01;3.07;;;2.33;;
10882;SDS011;5494;51.796;10.952;2023-07-31T10:28:32;3.70;;;2.30;;
10882;SDS011;5494;51.796;10.952;2023-07-31T10:31:03;4.90;;;2.67;;
10882;SDS011;5494;51.796;10.952;2023-07-31T10:33:34;3.00;;;2.20;;
10882;SDS011;5494;51.796;10.952;2023-07-31T10:36:12;3.07;;;2.27;;
10882;SDS011;5494;51.796;10.952;2023-07-31T10:38:42;4.67;;;2.40;;
10882;SDS011;5494;51.796;10.952;2023-07-31T10:41:11;3.53;;;2.50;;
10882;SDS011;5494;51.796;10.952;2023-07-31T10:43:39;4.17;;;2.40;;
10882;SDS011;5494;51.796;10.952;2023-07-31T10:46:07;3.77;;;2.30;;
10882;SDS011;5494;51.796;10.952;2023-07-31T10:48:40;2.53;;;2.30;;
10882;SDS011;5494;51.796;10.952;2023-07-31T10:51:12;3.60;;;2.50;;
10882;SDS011;5494;51.796;10.952;2023-07-31T10:53:40;3.60;;;2.57;;
10882;SDS011;5494;51.796;10.952;2023-07-31T10:56:09;4.77;;;2.67;;
10882;SDS011;5494;51.796;10.952;2023-07-31T10:58:39;5.17;;;3.20;;
10882;SDS011;5494;51.796;10.952;2023-07-31T11:01:12;6.27;;;2.73;;
10882;SDS011;5494;51.796;10.952;2023-07-31T11:03:42;2.63;;;2.00;;
10882;SDS011;5494;51.796;10.952;2023-07-31T11:06:15;3.77;;;2.77;;
10882;SDS011;5494;51.796;10.952;2023-07-31T11:08:45;3.50;;;2.57;;
10882;SDS011;5494;51.796;10.952;2023-07-31T11:11:16;6.17;;;3.00;;
10882;SDS011;5494;51.796;10.952;2023-07-31T11:13:46;4.97;;;2.57;;
10882;SDS011;5494;51.796;10.952;2023-07-31T11:16:17;2.63;;;2.43;;
10882;SDS011;5494;51.796;10.952;2023-07-31T11:18:49;3.53;;;2.60;;
10882;SDS011;5494;51.796;10.952;2023-07-31T11:21:21;2.90;;;2.60;;
10882;SDS011;5494;51.796;10.952;2023-07-31T11:23:52;3.23;;;2.10;;
10882;SDS011;5494;51.796;10.952;2023-07-31T11:26:26;4.03;;;2.47;;
10882;SDS011;5494;51.796;10.952;2023-07-31T11:28:57;3.20;;;2.13;;
10882;SDS011;5494;51.796;10.952;2023-07-31T11:31:25;4.83;;;2.50;;
10882;SDS011;5494;51.796;10.952;2023-07-31T11:34:05;2.93;;;2.20;;
10882;SDS011;5494;51.796;10.952;2023-07-31T11:36:33;4.53;;;2.20;;
10882;SDS011;5494;51.796;10.952;2023-07-31T11:39:04;4.00;;;2.50;;
10882;SDS011;5494;51.796;10.952;2023-07-31T11:41:32;2.63;;;2.37;;
10882;SDS011;5494;51.796;10.952;2023-07-31T11:44:01;2.97;;;2.20;;
10882;SDS011;5494;51.796;10.952;2023-07-31T11:46:46;4.00;;;3.30;;
10882;SDS011;5494;51.796;10.952;2023-07-31T11:49:16;2.90;;;2.17;;
10882;SDS011;5494;51.796;10.952;2023-07-31T11:51:44;4.37;;;2.77;;
10882;SDS011;5494;51.796;10.952;2023-07-31T11:54:12;2.40;;;2.20;;
10882;SDS011;5494;51.796;10.952;2023-07-31T11:56:41;4.43;;;2.93;;
10882;SDS011;5494;51.796;10.952;2023-07-31T11:59:11;4.17;;;2.90;;
10882;SDS011;5494;51.796;10.952;2023-07-31T12:01:40;3.83;;;2.50;;
10882;SDS011;5494;51.796;10.952;2023-07-31T12:04:09;3.10;;;2.30;;
10882;SDS011;5494;51.796;10.952;2023-07-31T12:06:39;3.20;;;2.60;;
10882;SDS011;5494;51.796;10.952;2023-07-31T12:09:08;4.53;;;2.70;;
10882;SDS011;5494;51.796;10.952;2023-07-31T12:11:42;4.37;;;2.60;;
10882;SDS011;5494;51.796;10.952;2023-07-31T12:14:19;4.93;;;2.73;;
10882;SDS011;5494;51.796;10.952;2023-07-31T12:16:48;3.60;;;2.83;;
10882;SDS011;5494;51.796;10.952;2023-07-31T12:19:22;3.20;;;2.77;;
10882;SDS011;5494;51.796;10.952;2023-07-31T12:21:55;4.17;;;2.43;;
10882;SDS011;5494;51.796;10.952;2023-07-31T12:24:25;5.77;;;2.53;;
10882;SDS011;5494;51.796;10.952;2023-07-31T12:26:54;2.70;;;2.47;;
10882;SDS011;5494;51.796;10.952;2023-07-31T12:29:22;4.67;;;2.90;;
10882;SDS011;5494;51.796;10.952;2023-07-31T12:31:50;4.67;;;2.63;;
10882;SDS011;5494;51.796;10.952;2023-07-31T12:34:19;3.50;;;2.30;;
10882;SDS011;5494;51.796;10.952;2023-07-31T12:36:48;5.23;;;2.93;;
10882;SDS011;5494;51.796;10.952;2023-07-31T12:39:18;3.57;;;2.60;;
10882;SDS011;5494;51.796;10.952;2023-07-31T12:41:46;4.10;;;2.70;;
10882;SDS011;5494;51.796;10.952;2023-07-31T12:44:15;3.67;;;2.50;;
10882;SDS011;5494;51.796;10.952;2023-07-31T12:46:43;4.73;;;2.70;;
10882;SDS011;5494;51.796;10.952;2023-07-31T12:49:14;7.70;;;3.43;;
10882;SDS011;5494;51.796;10.952;2023-07-31T12:51:42;4.80;;;2.67;;
10882;SDS011;5494;51.796;10.952;2023-07-31T12:54:10;4.00;;;2.80;;
10882;SDS011;5494;51.796;10.952;2023-07-31T12:56:40;4.17;;;2.40;;
10882;SDS011;5494;51.796;10.952;2023-07-31T12:59:08;4.83;;;3.00;;
10882;SDS011;5494;51.796;10.952;2023-07-31T13:01:36;4.07;;;2.40;;
10882;SDS011;5494;51.796;10.952;2023-07-31T13:04:04;3.50;;;2.40;;
10882;SDS011;5494;51.796;10.952;2023-07-31T13:06:37;5.47;;;2.30;;
10882;SDS011;5494;51.796;10.952;2023-07-31T13:09:06;3.50;;;2.30;;
10882;SDS011;5494;51.796;10.952;2023-07-31T13:11:35;3.47;;;2.60;;
10882;SDS011;5494;51.796;10.952;2023-07-31T13:14:05;4.50;;;2.20;;
10882;SDS011;5494;51.796;10.952;2023-07-31T13:16:33;3.97;;;2.30;;
10882;SDS011;5494;51.796;10.952;2023-07-31T13:19:01;6.33;;;2.63;;
10882;SDS011;5494;51.796;10.952;2023-07-31T13:21:30;4.40;;;2.80;;
10882;SDS011;5494;51.796;10.952;2023-07-31T13:23:58;2.97;;;2.30;;
10882;SDS011;5494;51.796;10.952;2023-07-31T13:26:27;6.33;;;2.50;;
10882;SDS011;5494;51.796;10.952;2023-07-31T13:28:55;3.43;;;2.23;;
10882;SDS011;5494;51.796;10.952;2023-07-31T13:31:24;4.63;;;2.50;;
10882;SDS011;5494;51.796;10.952;2023-07-31T13:33:53;3.33;;;2.30;;
10882;SDS011;5494;51.796;10.952;2023-07-31T13:36:21;2.63;;;2.10;;
10882;SDS011;5494;51.796;10.952;2023-07-31T13:38:49;2.93;;;1.90;;
10882;SDS011;5494;51.796;10.952;2023-07-31T13:41:17;2.90;;;2.00;;
10882;SDS011;5494;51.796;10.952;2023-07-31T13:43:45;3.23;;;2.00;;
10882;SDS011;5494;51.796;10.952;2023-07-31T13:46:13;4.13;;;3.13;;
10882;SDS011;5494;51.796;10.952;2023-07-31T13:48:46;2.57;;;2.37;;
10882;SDS011;5494;51.796;10.952;2023-07-31T13:51:14;3.17;;;2.07;;
10882;SDS011;5494;51.796;10.952;2023-07-31T13:53:44;2.57;;;1.77;;
10882;SDS011;5494;51.796;10.952;2023-07-31T13:56:12;3.43;;;2.40;;
10882;SDS011;5494;51.796;10.952;2023-07-31T13:58:40;2.80;;;2.13;;
10882;SDS011;5494;51.796;10.952;2023-07-31T14:01:08;3.70;;;2.03;;
10882;SDS011;5494;51.796;10.952;2023-07-31T14:03:36;2.73;;;1.80;;
10882;SDS011;5494;51.796;10.952;2023-07-31T14:06:06;3.60;;;2.23;;
10882;SDS011;5494;51.796;10.952;2023-07-31T14:08:34;3.20;;;2.20;;
10882;SDS011;5494;51.796;10.952;2023-07-31T14:11:03;2.10;;;1.73;;
10882;SDS011;5494;51.796;10.952;2023-07-31T14:13:31;3.83;;;1.87;;
10882;SDS011;5494;51.796;10.952;2023-07-31T14:15:59;3.33;;;1.90;;
10882;SDS011;5494;51.796;10.952;2023-07-31T14:18:27;4.07;;;2.20;;
10882;SDS011;5494;51.796;10.952;2023-07-31T14:20:55;3.50;;;2.20;;
10882;SDS011;5494;51.796;10.952;2023-07-31T14:23:25;5.33;;;2.53;;
10882;SDS011;5494;51.796;10.952;2023-07-31T14:25:53;2.73;;;2.20;;
10882;SDS011;5494;51.796;10.952;2023-07-31T14:28:21;3.07;;;2.50;;
10882;SDS011;5494;51.796;10.952;2023-07-31T14:30:52;2.57;;;1.90;;
10882;SDS011;5494;51.796;10.952;2023-07-31T14:33:20;2.63;;;2.13;;
10882;SDS011;5494;51.796;10.952;2023-07-31T14:35:51;2.17;;;1.77;;
10882;SDS011;5494;51.796;10.952;2023-07-31T14:38:20;3.57;;;2.23;;
10882;SDS011;5494;51.796;10.952;2023-07-31T14:40:50;3.10;;;2.20;;
10882;SDS011;5494;51.796;10.952;2023-07-31T14:43:20;2.73;;;2.00;;
10882;SDS011;5494;51.796;10.952;2023-07-31T14:45:50;3.67;;;1.70;;
10882;SDS011;5494;51.796;10.952;2023-07-31T14:48:22;4.40;;;2.17;;
10882;SDS011;5494;51.796;10.952;2023-07-31T14:50:50;3.30;;;2.37;;
10882;SDS011;5494;51.796;10.952;2023-07-31T14:53:18;2.43;;;1.87;;
10882;SDS011;5494;51.796;10.952;2023-07-31T14:55:46;3.00;;;2.10;;
10882;SDS011;5494;51.796;10.952;2023-07-31T14:58:18;2.43;;;2.03;;
10882;SDS011;5494;51.796;10.952;2023-07-31T15:00:46;4.40;;;2.40;;
10882;SDS011;5494;51.796;10.952;2023-07-31T15:03:15;4.23;;;2.43;;
10882;SDS011;5494;51.796;10.952;2023-07-31T15:05:43;5.93;;;2.43;;